createdAt,value
2022-08-03T00:00:35.354Z,26.90
2022-08-03T00:03:03.869Z,19.48
2022-08-03T00:05:33.092Z,20.95
2022-08-03T00:08:01.244Z,20.08
2022-08-03T00:10:30.230Z,22.13
2022-08-03T00:12:59.619Z,26.48
2022-08-03T00:15:27.845Z,20.45
2022-08-03T00:17:55.878Z,26.63
2022-08-03T00:20:24.032Z,23.70
2022-08-03T00:22:52.502Z,31.30
2022-08-03T00:25:20.894Z,22.98
2022-08-03T00:27:49.045Z,24.25
2022-08-03T00:30:20.506Z,25.33
2022-08-03T00:32:48.505Z,28.83
2022-08-03T00:35:36.460Z,24.67
2022-08-03T00:38:06.818Z,24.92
2022-08-03T00:40:35.539Z,20.23
2022-08-03T00:43:05.418Z,28.58
2022-08-03T00:45:36.807Z,19.60
2022-08-03T00:48:05.917Z,22.48
2022-08-03T00:50:48.741Z,22.85
2022-08-03T00:53:20.652Z,21.40
2022-08-03T00:55:48.748Z,23.77
2022-08-03T00:58:17.047Z,25.95
2022-08-03T01:00:46.603Z,21.52
2022-08-03T01:03:14.745Z,21.90
2022-08-03T01:05:51.061Z,19.50
2022-08-03T01:08:24.272Z,22.20
2022-08-03T01:11:02.274Z,19.98
2022-08-03T01:14:02.059Z,26.55
2022-08-03T01:16:35.807Z,25.40
2022-08-03T01:19:19.075Z,21.08
2022-08-03T01:21:58.826Z,23.23
2022-08-03T01:24:38.256Z,24.48
2022-08-03T01:27:13.826Z,24.45
2022-08-03T01:29:53.340Z,18.00
2022-08-03T01:33:00.928Z,22.33
2022-08-03T01:35:17.969Z,19.67
2022-08-03T01:37:52.848Z,21.23
2022-08-03T01:40:23.191Z,23.48
2022-08-03T01:42:52.757Z,24.63
2022-08-03T01:45:23.594Z,28.73
2022-08-03T01:47:52.852Z,25.77
2022-08-03T01:50:24.893Z,27.50
2022-08-03T01:52:54.152Z,24.73
2022-08-03T01:55:23.757Z,24.60
2022-08-03T01:58:05.837Z,27.58
2022-08-03T02:00:38.314Z,27.10
2022-08-03T02:03:07.783Z,25.75
2022-08-03T02:05:37.405Z,27.75
2022-08-03T02:08:08.975Z,32.35
2022-08-03T02:10:38.683Z,24.73
2022-08-03T02:13:08.353Z,28.75
2022-08-03T02:15:39.342Z,29.58
2022-08-03T02:18:10.484Z,34.15
2022-08-03T02:20:39.626Z,31.42
2022-08-03T02:23:08.543Z,33.75
2022-08-03T02:25:42.596Z,36.63
2022-08-03T02:28:17.430Z,39.90
2022-08-03T02:30:51.876Z,35.78
2022-08-03T02:33:28.267Z,35.13
2022-08-03T02:35:58.223Z,35.95
2022-08-03T02:38:32.194Z,37.33
2022-08-03T02:41:02.347Z,38.95
2022-08-03T02:43:56.773Z,36.08
2022-08-03T02:46:26.600Z,35.45
2022-08-03T02:48:57.119Z,39.80
2022-08-03T02:51:26.328Z,34.90
2022-08-03T02:53:56.235Z,39.65
2022-08-03T02:56:26.697Z,34.85
2022-08-03T02:58:55.676Z,33.25
2022-08-03T03:01:28.028Z,34.92
2022-08-03T03:03:58.153Z,35.95
2022-08-03T03:06:29.294Z,33.45
2022-08-03T03:08:59.841Z,34.03
2022-08-03T03:11:28.354Z,32.05
2022-08-03T03:13:58.215Z,30.48
2022-08-03T03:16:30.362Z,33.95
2022-08-03T03:18:59.535Z,33.10
2022-08-03T03:21:28.793Z,33.67
2022-08-03T03:23:57.244Z,35.75
2022-08-03T03:26:25.277Z,33.50
2022-08-03T03:28:53.729Z,38.00
2022-08-03T03:31:23.067Z,37.30
2022-08-03T03:33:52.679Z,33.85
2022-08-03T03:36:20.862Z,28.55
2022-08-03T03:38:49.069Z,34.13
2022-08-03T03:41:17.270Z,30.30
2022-08-03T03:43:45.606Z,27.80
2022-08-03T03:46:14.313Z,23.58
2022-08-03T03:48:42.479Z,24.52
2022-08-03T03:51:12.394Z,26.67
2022-08-03T03:53:40.563Z,29.23
2022-08-03T03:56:08.608Z,26.70
2022-08-03T03:58:36.686Z,27.63
2022-08-03T04:01:04.761Z,27.33
2022-08-03T04:03:32.937Z,21.10
2022-08-03T04:06:18.430Z,21.63
2022-08-03T04:09:05.400Z,23.38
2022-08-03T04:11:39.533Z,22.83
2022-08-03T04:14:11.886Z,26.52
2022-08-03T04:16:44.137Z,25.70
2022-08-03T04:19:18.456Z,24.10
2022-08-03T04:21:53.972Z,23.42
2022-08-03T04:24:28.118Z,26.73
2022-08-03T04:26:58.502Z,24.17
2022-08-03T04:29:27.612Z,25.02
2022-08-03T04:31:58.654Z,30.38
2022-08-03T04:34:26.881Z,25.75
2022-08-03T04:37:00.060Z,20.13
2022-08-03T04:39:32.666Z,24.30
2022-08-03T04:42:08.064Z,22.98
2022-08-03T04:44:40.577Z,26.38
2022-08-03T04:47:09.046Z,26.77
2022-08-03T04:49:38.697Z,29.70
2022-08-03T04:52:10.155Z,26.48
2022-08-03T04:54:45.875Z,24.45
2022-08-03T04:57:22.182Z,24.23
2022-08-03T04:59:59.576Z,25.60
2022-08-03T05:02:31.289Z,25.70
2022-08-03T05:04:59.685Z,23.05
2022-08-03T05:07:35.937Z,27.08
2022-08-03T05:10:15.105Z,22.23
2022-08-03T05:12:45.651Z,24.63
2022-08-03T05:15:14.270Z,25.83
2022-08-03T05:17:42.889Z,21.08
2022-08-03T05:20:12.311Z,22.58
2022-08-03T05:22:40.390Z,22.35
2022-08-03T05:25:10.204Z,25.27
2022-08-03T05:27:48.203Z,24.25
2022-08-03T05:30:30.467Z,25.40
2022-08-03T05:33:02.240Z,26.63
2022-08-03T05:36:02.813Z,23.63
2022-08-03T05:38:23.685Z,26.55
2022-08-03T05:41:21.432Z,24.65
2022-08-03T05:43:47.875Z,23.20
2022-08-03T05:46:16.055Z,24.95
2022-08-03T05:48:44.622Z,25.73
2022-08-03T05:51:13.591Z,24.80
2022-08-03T05:53:42.160Z,28.10
2022-08-03T05:56:13.800Z,28.02
2022-08-03T05:58:44.504Z,25.45
2022-08-03T06:01:12.710Z,28.73
2022-08-03T06:03:40.831Z,25.67
2022-08-03T06:06:08.926Z,33.40
2022-08-03T06:08:37.018Z,28.02
2022-08-03T06:11:05.156Z,24.77
2022-08-03T06:13:35.020Z,25.38
2022-08-03T06:16:03.287Z,27.02
2022-08-03T06:18:31.479Z,28.70
2022-08-03T06:21:09.542Z,34.03
2022-08-03T06:23:54.517Z,35.40
2022-08-03T06:26:25.668Z,31.60
2022-08-03T06:28:55.657Z,30.05
2022-08-03T06:31:33.027Z,30.80
2022-08-03T06:34:31.297Z,33.47
2022-08-03T06:36:52.719Z,24.58
2022-08-03T06:39:23.557Z,29.25
2022-08-03T06:41:53.561Z,28.42
2022-08-03T06:44:22.959Z,24.95
2022-08-03T06:46:51.847Z,29.42
2022-08-03T06:49:20.212Z,28.00
2022-08-03T06:52:03.823Z,27.90
2022-08-03T06:54:36.876Z,27.80
2022-08-03T06:57:05.941Z,28.55
2022-08-03T07:00:07.865Z,40.80
2022-08-03T07:02:23.573Z,33.47
2022-08-03T07:04:52.183Z,37.55
2022-08-03T07:07:20.712Z,39.75
2022-08-03T07:09:56.836Z,32.03
2022-08-03T07:12:26.231Z,32.88
2022-08-03T07:15:00.369Z,30.95
2022-08-03T07:17:30.554Z,27.85
2022-08-03T07:19:58.730Z,24.42
2022-08-03T07:22:26.838Z,28.92
2022-08-03T07:24:54.839Z,31.30
2022-08-03T07:27:23.242Z,27.20
2022-08-03T07:29:51.336Z,25.23
2022-08-03T07:32:20.722Z,28.38
2022-08-03T07:34:48.815Z,27.38
2022-08-03T07:37:16.940Z,27.33
2022-08-03T07:39:45.306Z,23.73
2022-08-03T07:42:13.515Z,27.23
2022-08-03T07:44:42.473Z,25.98
2022-08-03T07:47:10.580Z,28.42
2022-08-03T07:49:52.199Z,26.55
2022-08-03T07:52:38.008Z,25.60
2022-08-03T07:55:07.473Z,25.10
2022-08-03T07:57:36.402Z,22.27
2022-08-03T08:00:06.623Z,23.98
2022-08-03T08:02:40.545Z,28.55
2022-08-03T08:05:11.181Z,20.33
2022-08-03T08:07:40.419Z,26.98
2022-08-03T08:10:10.322Z,23.35
2022-08-03T08:12:39.159Z,20.17
2022-08-03T08:15:08.977Z,22.08
2022-08-03T08:17:44.078Z,20.85
2022-08-03T08:20:18.897Z,23.20
2022-08-03T08:22:57.924Z,16.15
2022-08-03T08:25:26.495Z,16.50
2022-08-03T08:28:22.171Z,16.55
2022-08-03T08:30:43.250Z,20.83
2022-08-03T08:33:22.196Z,16.80
2022-08-03T08:35:54.253Z,15.05
2022-08-03T08:38:22.753Z,17.05
2022-08-03T08:40:51.263Z,19.40
2022-08-03T08:43:19.482Z,10.88
2022-08-03T08:45:49.975Z,17.45
2022-08-03T08:48:23.229Z,14.30
2022-08-03T08:50:55.750Z,9.90
2022-08-03T08:53:27.577Z,10.02
2022-08-03T08:56:00.677Z,7.95
2022-08-03T08:58:31.346Z,9.98
2022-08-03T09:00:59.785Z,9.45
2022-08-03T09:03:29.841Z,11.95
2022-08-03T09:06:01.041Z,6.70
2022-08-03T09:08:30.392Z,9.25
2022-08-03T09:10:58.540Z,8.88
2022-08-03T09:13:26.712Z,8.23
2022-08-03T09:16:13.350Z,8.02
2022-08-03T09:18:41.908Z,9.98
2022-08-03T09:21:38.022Z,11.02
2022-08-03T09:24:16.508Z,7.97
2022-08-03T09:26:54.170Z,6.80
2022-08-03T09:29:23.091Z,8.27
2022-08-03T09:32:00.248Z,7.57
2022-08-03T09:34:29.133Z,12.63
2022-08-03T09:36:58.972Z,8.93
2022-08-03T09:39:41.339Z,9.13
2022-08-03T09:42:11.681Z,8.70
2022-08-03T09:44:45.015Z,8.35
2022-08-03T09:47:15.298Z,19.88
2022-08-03T09:49:57.592Z,13.07
2022-08-03T09:52:39.026Z,11.18
2022-08-03T09:56:31.567Z,8.30
2022-08-03T09:58:10.516Z,7.70
2022-08-03T10:00:55.145Z,7.60
2022-08-03T10:03:24.031Z,13.48
2022-08-03T10:05:56.045Z,8.50
2022-08-03T10:08:28.882Z,9.02
2022-08-03T10:10:58.671Z,6.18
2022-08-03T10:13:26.955Z,9.90
2022-08-03T10:16:21.969Z,8.35
2022-08-03T10:18:43.070Z,9.77
2022-08-03T10:21:15.208Z,11.43
2022-08-03T10:23:45.252Z,10.45
2022-08-03T10:26:17.493Z,8.73
2022-08-03T10:28:50.920Z,9.63
2022-08-03T10:31:21.614Z,6.47
2022-08-03T10:33:53.439Z,8.95
2022-08-03T10:48:02.036Z,8.63
2022-08-03T10:50:30.507Z,7.72
2022-08-03T10:52:59.290Z,8.77
2022-08-03T10:55:50.766Z,6.07
2022-08-03T10:58:57.006Z,6.32
2022-08-03T11:01:59.799Z,10.05
2022-08-03T11:04:31.040Z,10.52
2022-08-03T11:07:22.794Z,11.73
2022-08-03T11:09:52.092Z,8.05
2022-08-03T11:12:30.695Z,7.63
2022-08-03T11:15:02.745Z,6.78
2022-08-03T11:17:30.974Z,9.35
2022-08-03T11:20:00.556Z,9.02
2022-08-03T11:22:54.488Z,8.32
2022-08-03T11:25:53.880Z,6.93
2022-08-03T11:28:27.391Z,10.00
2022-08-03T11:30:55.491Z,11.30
2022-08-03T11:33:33.045Z,6.93
2022-08-03T11:36:02.897Z,10.50
2022-08-03T11:38:32.322Z,10.32
2022-08-03T11:41:02.698Z,8.25
2022-08-03T11:43:46.883Z,8.27
2022-08-03T11:46:28.722Z,9.65
2022-08-03T11:49:09.994Z,9.80
2022-08-03T11:51:40.744Z,8.35
2022-08-03T11:54:11.447Z,10.73
2022-08-03T11:56:47.049Z,9.48
2022-08-03T11:59:20.569Z,15.05
2022-08-03T12:01:50.166Z,11.02
2022-08-03T12:04:18.258Z,10.45
2022-08-03T12:06:59.832Z,14.85
2022-08-03T12:09:29.287Z,9.20
2022-08-03T12:12:00.591Z,10.30
2022-08-03T12:14:49.199Z,11.65
2022-08-03T12:17:18.885Z,9.45
2022-08-03T12:19:47.564Z,11.80
2022-08-03T12:22:16.832Z,11.57
2022-08-03T12:24:47.199Z,10.88
2022-08-03T12:27:25.398Z,12.68
2022-08-03T12:29:57.267Z,10.13
2022-08-03T12:32:28.448Z,9.07
2022-08-03T12:35:01.038Z,9.45
2022-08-03T12:37:30.095Z,12.23
2022-08-03T12:40:09.530Z,8.77
2022-08-03T12:42:40.412Z,10.55
2022-08-03T12:45:24.918Z,10.45
2022-08-03T12:47:55.086Z,13.85
2022-08-03T12:50:27.947Z,7.05
2022-08-03T12:52:56.980Z,12.10
2022-08-03T12:55:57.061Z,10.98
2022-08-03T12:58:33.823Z,6.75
2022-08-03T13:01:04.871Z,7.03
2022-08-03T13:03:42.179Z,8.70
2022-08-03T13:06:14.944Z,6.55
2022-08-03T13:08:44.389Z,5.97
2022-08-03T13:11:57.630Z,9.35
2022-08-03T13:14:17.497Z,8.80
2022-08-03T13:16:48.163Z,10.25
2022-08-03T13:19:16.333Z,13.63
2022-08-03T13:21:53.665Z,7.80
2022-08-03T13:24:33.287Z,8.23
2022-08-03T13:28:01.129Z,8.23
2022-08-03T13:29:53.996Z,6.97
2022-08-03T13:32:22.783Z,6.28
2022-08-03T13:34:50.832Z,11.95
2022-08-03T13:37:18.924Z,8.88
2022-08-03T13:39:58.055Z,7.55
2022-08-03T13:42:30.737Z,9.27
2022-08-03T13:44:59.080Z,9.05
2022-08-03T13:47:27.451Z,8.98
2022-08-03T13:50:00.385Z,11.15
2022-08-03T13:52:31.315Z,8.77
2022-08-03T13:55:00.107Z,8.77
2022-08-03T13:58:11.636Z,8.75
2022-08-03T14:00:27.725Z,13.90
2022-08-03T14:03:14.893Z,12.27
2022-08-03T14:05:43.974Z,13.10
2022-08-03T14:08:12.715Z,10.35
2022-08-03T14:10:42.894Z,7.40
2022-08-03T14:13:16.856Z,11.95
2022-08-03T14:15:49.962Z,8.48
2022-08-03T14:18:29.152Z,5.82
2022-08-03T14:21:05.928Z,14.85
2022-08-03T14:23:35.119Z,11.05
2022-08-03T14:26:03.189Z,10.15
2022-08-03T14:28:32.651Z,7.68
2022-08-03T14:31:00.785Z,9.13
2022-08-03T14:33:29.401Z,7.97
2022-08-03T14:35:57.623Z,9.65
2022-08-03T14:38:26.001Z,5.68
2022-08-03T14:40:54.154Z,6.60
2022-08-03T14:43:22.305Z,9.82
2022-08-03T14:45:53.705Z,9.30
2022-08-03T14:50:28.957Z,8.35
2022-08-03T14:51:10.830Z,5.97
2022-08-03T14:53:38.902Z,11.60
2022-08-03T14:56:10.410Z,6.75
2022-08-03T14:58:39.306Z,6.07
2022-08-03T15:02:03.368Z,5.60
2022-08-03T15:03:57.152Z,8.18
2022-08-03T15:06:25.589Z,7.30
2022-08-03T15:09:21.544Z,10.20
2022-08-03T15:11:42.625Z,7.45
2022-08-03T15:14:10.752Z,8.65
2022-08-03T15:16:43.315Z,8.05
2022-08-03T15:20:00.930Z,7.45
2022-08-03T15:22:00.951Z,11.63
2022-08-03T15:24:29.296Z,7.35
2022-08-03T15:26:57.396Z,9.63
2022-08-03T15:30:05.758Z,9.40
2022-08-03T15:32:14.871Z,7.28
2022-08-03T15:34:50.057Z,8.30
2022-08-03T15:37:19.148Z,8.93
2022-08-03T15:40:00.831Z,10.48
2022-08-03T15:42:30.539Z,12.15
2022-08-03T15:44:58.644Z,6.28
2022-08-03T15:47:28.375Z,6.75
2022-08-03T15:49:56.616Z,9.68
2022-08-03T15:52:24.840Z,7.70
2022-08-03T15:54:52.909Z,8.88
2022-08-03T15:57:21.977Z,8.00
2022-08-03T15:59:50.397Z,9.88
2022-08-03T16:02:18.519Z,6.88
2022-08-03T16:04:47.944Z,8.95
2022-08-03T16:07:16.372Z,8.32
2022-08-03T16:09:44.546Z,8.65
2022-08-03T16:12:16.009Z,7.97
2022-08-03T16:14:52.705Z,12.55
2022-08-03T16:17:22.375Z,9.60
2022-08-03T16:19:55.224Z,12.45
2022-08-03T16:22:23.998Z,8.32
2022-08-03T16:24:52.088Z,8.27
2022-08-03T16:27:56.864Z,6.32
2022-08-03T16:30:10.261Z,6.22
2022-08-03T16:32:39.927Z,7.05
2022-08-03T16:35:19.792Z,8.32
2022-08-03T16:37:54.593Z,11.75
2022-08-03T16:40:26.001Z,8.55
2022-08-03T16:42:54.130Z,7.90
2022-08-03T16:45:22.370Z,10.85
2022-08-03T16:48:05.419Z,6.70
2022-08-03T16:50:37.228Z,9.10
2022-08-03T16:53:09.166Z,8.20
2022-08-03T16:55:48.582Z,6.80
2022-08-03T16:58:34.751Z,7.25
2022-08-03T17:01:23.955Z,11.90
2022-08-03T17:04:01.890Z,8.77
2022-08-03T17:06:36.367Z,9.63
2022-08-03T17:09:08.811Z,9.40
2022-08-03T17:11:43.885Z,13.95
2022-08-03T17:14:16.578Z,12.73
2022-08-03T17:16:53.022Z,9.02
2022-08-03T17:19:25.328Z,8.38
2022-08-03T17:22:01.464Z,9.55
2022-08-03T17:24:33.687Z,11.15
2022-08-03T17:27:08.805Z,8.63
2022-08-03T17:29:45.285Z,10.30
2022-08-03T17:32:21.448Z,7.25
2022-08-03T17:34:50.423Z,14.75
2022-08-03T17:37:50.619Z,6.70
2022-08-03T17:40:17.375Z,12.68
2022-08-03T17:42:46.256Z,12.20
2022-08-03T17:45:19.793Z,6.43
2022-08-03T17:47:57.345Z,7.50
2022-08-03T17:50:35.540Z,8.95
2022-08-03T17:53:15.630Z,12.27
2022-08-03T17:56:05.560Z,10.32
2022-08-03T17:58:52.346Z,8.38
2022-08-03T18:04:40.490Z,12.18
2022-08-03T18:07:12.768Z,11.00
2022-08-03T18:10:04.238Z,12.57
2022-08-03T18:12:44.915Z,11.10
2022-08-03T18:15:21.396Z,11.32
2022-08-03T18:17:55.447Z,7.97
2022-08-03T18:20:34.503Z,13.55
2022-08-03T18:23:10.258Z,8.48
2022-08-03T18:25:50.025Z,9.85
2022-08-03T18:28:23.251Z,9.38
2022-08-03T18:30:55.006Z,9.90
2022-08-03T18:34:16.228Z,12.73
2022-08-03T18:36:21.755Z,12.35
2022-08-03T18:38:59.802Z,10.70
2022-08-03T18:41:33.282Z,30.17
2022-08-03T18:44:09.018Z,7.63
2022-08-03T18:47:07.092Z,10.93
2022-08-03T18:49:49.164Z,10.77
2022-08-03T18:52:27.781Z,11.27
2022-08-03T18:55:07.303Z,9.68
2022-08-03T18:57:46.765Z,10.88
2022-08-03T19:00:17.354Z,14.30
2022-08-03T19:02:58.870Z,18.85
2022-08-03T19:05:53.695Z,16.88
2022-08-03T19:08:26.534Z,13.85
2022-08-03T19:11:02.167Z,18.05
2022-08-03T19:13:50.179Z,17.75
2022-08-03T19:16:28.433Z,19.10
2022-08-03T19:19:00.181Z,13.02
2022-08-03T19:21:29.931Z,19.13
2022-08-03T19:24:01.673Z,12.45
2022-08-03T19:26:31.439Z,14.40
2022-08-03T19:29:00.890Z,17.70
2022-08-03T19:31:34.862Z,20.88
2022-08-03T19:34:04.267Z,17.45
2022-08-03T19:36:38.640Z,11.77
2022-08-03T19:39:12.726Z,16.60
2022-08-03T19:41:43.254Z,12.00
2022-08-03T19:44:27.041Z,14.50
2022-08-03T19:46:59.399Z,13.07
2022-08-03T19:49:57.735Z,14.95
2022-08-03T19:52:24.421Z,31.60
2022-08-03T19:55:01.666Z,16.02
2022-08-03T19:57:33.776Z,15.90
2022-08-03T20:00:04.072Z,14.77
2022-08-03T20:02:34.333Z,12.77
2022-08-03T20:05:02.693Z,15.35
2022-08-03T20:07:32.833Z,16.88
2022-08-03T20:10:02.237Z,16.80
2022-08-03T20:12:38.567Z,17.30
2022-08-03T20:15:10.712Z,16.90
2022-08-03T20:17:56.390Z,20.48
2022-08-03T20:20:28.297Z,18.02
2022-08-03T20:22:59.201Z,15.75
2022-08-03T20:25:37.901Z,24.48
2022-08-03T20:28:14.331Z,14.43
2022-08-03T20:30:46.303Z,17.45
2022-08-03T20:33:18.737Z,16.45
2022-08-03T20:35:49.654Z,15.13
2022-08-03T20:38:19.225Z,13.90
2022-08-03T20:40:48.406Z,20.73
2022-08-03T20:43:16.587Z,20.27
2022-08-03T20:45:59.158Z,17.70
2022-08-03T20:48:38.185Z,13.48
2022-08-03T20:51:19.605Z,19.85
2022-08-03T20:53:59.576Z,16.10
2022-08-03T20:56:33.710Z,21.33
2022-08-03T20:59:04.822Z,17.88
2022-08-03T21:01:36.434Z,24.08
2022-08-03T21:07:00.711Z,20.98
2022-08-03T21:09:41.607Z,23.33
2022-08-03T21:12:19.675Z,16.52
2022-08-03T21:13:07.968Z,26.42
2022-08-03T21:13:08.185Z,10.15
2022-08-03T21:15:02.278Z,15.80
2022-08-03T21:17:41.862Z,17.95
2022-08-03T21:20:12.411Z,15.50
2022-08-03T21:22:44.185Z,13.63
2022-08-03T21:25:16.376Z,12.00
2022-08-03T21:27:44.476Z,14.77
2022-08-03T21:30:15.372Z,11.32
2022-08-03T21:32:46.332Z,16.52
2022-08-03T21:35:15.257Z,13.55
2022-08-03T21:37:45.045Z,11.48
2022-08-03T21:40:17.991Z,14.40
2022-08-03T21:42:46.358Z,11.27
2022-08-03T21:45:17.633Z,15.35
2022-08-03T21:47:48.592Z,12.30
2022-08-03T21:50:17.897Z,9.98
2022-08-03T21:52:48.315Z,10.05
2022-08-03T21:55:20.410Z,14.45
2022-08-03T21:57:54.414Z,10.52
2022-08-03T22:00:24.145Z,9.50
2022-08-03T22:02:57.407Z,17.60
2022-08-03T22:05:42.655Z,11.70
2022-08-03T22:08:13.954Z,15.30
2022-08-03T22:10:44.174Z,23.55
2022-08-03T22:13:12.906Z,22.88
2022-08-03T22:15:41.364Z,22.38
2022-08-03T22:18:11.036Z,23.42
2022-08-03T22:20:39.285Z,19.88
2022-08-03T22:23:08.311Z,23.70
2022-08-03T22:25:39.323Z,19.92
2022-08-03T22:28:09.723Z,19.90
2022-08-03T22:30:38.835Z,18.70
2022-08-03T22:33:11.665Z,18.77
2022-08-03T22:35:47.986Z,19.25
2022-08-03T22:38:17.689Z,19.63
2022-08-03T22:40:48.048Z,16.98
2022-08-03T22:43:16.214Z,14.88
2022-08-03T22:46:09.954Z,19.75
2022-08-03T22:48:41.232Z,17.95
2022-08-03T22:51:10.811Z,17.55
2022-08-03T22:53:40.211Z,21.25
2022-08-03T22:56:08.804Z,20.33
2022-08-03T22:58:36.841Z,15.70
2022-08-03T23:01:08.192Z,20.88
2022-08-03T23:04:01.010Z,18.35
2022-08-03T23:06:34.132Z,16.75
2022-08-03T23:09:04.221Z,16.60
2022-08-03T23:11:36.223Z,17.67
2022-08-03T23:14:12.061Z,17.13
2022-08-03T23:16:41.536Z,16.38
2022-08-03T23:19:17.198Z,18.20
2022-08-03T23:22:02.913Z,19.05
2022-08-03T23:24:36.208Z,16.58
2022-08-03T23:27:05.669Z,16.02
2022-08-03T23:29:35.845Z,16.30
2022-08-03T23:32:04.737Z,16.38
2022-08-03T23:34:52.345Z,18.80
2022-08-03T23:37:21.320Z,16.50
2022-08-03T23:39:50.135Z,13.98
2022-08-03T23:42:19.776Z,14.40
2022-08-03T23:44:48.496Z,20.10
2022-08-03T23:47:16.603Z,16.80
2022-08-03T23:49:46.082Z,14.55
2022-08-03T23:52:24.185Z,29.98
2022-08-03T23:55:05.127Z,16.67
2022-08-03T23:57:40.562Z,19.48
